Athens, Vermont
Current Conditions -  °F | °C
As of 7:54 AM on Friday 24 Oct 2014 (Local Time) from KVSF Reporting Station
Overcast Overcast  
Wind Chill: 40°   Ceiling: 2300
Heat Index: 44°   Visibility: 10mi
Dew Point: 40°   Wind: 7mph
Humidity: 85%   Direction: 280°W
Pressure: 29.78"   Gusts: NA
Location:  43.2811°N, 72.6352°W
Report Text: KVSF 241154Z AUTO 28006KT 10SM OVC023 07/04 A2978 RMK AO2 SLP088 60005 70078 T00670044 10083 20061 53004
Loading
Personal Weather Stations






























Interactive Weather Map
Tropical Storm Tracking
New forecast layout! Learn more

10-Day Weather Forecast

Advertisements
Track Severe Weather on mobile